sensor_id;sensor_type;location;lat;lon;timestamp;P1;durP1;ratioP1;P2;durP2;ratioP2
52786;SDS011;38661;53.152;5.846;2023-12-20T00:01:22;16.42;;;3.15;;
52786;SDS011;38661;53.152;5.846;2023-12-20T00:03:48;12.38;;;3.30;;
52786;SDS011;38661;53.152;5.846;2023-12-20T00:06:13;15.70;;;3.33;;
52786;SDS011;38661;53.152;5.846;2023-12-20T00:08:39;12.25;;;2.78;;
52786;SDS011;38661;53.152;5.846;2023-12-20T00:11:05;14.30;;;2.83;;
52786;SDS011;38661;53.152;5.846;2023-12-20T00:13:31;12.02;;;3.25;;
52786;SDS011;38661;53.152;5.846;2023-12-20T00:15:56;12.50;;;3.25;;
52786;SDS011;38661;53.152;5.846;2023-12-20T00:18:22;15.85;;;2.63;;
52786;SDS011;38661;53.152;5.846;2023-12-20T00:20:48;17.08;;;3.60;;
52786;SDS011;38661;53.152;5.846;2023-12-20T00:23:14;18.33;;;3.95;;
52786;SDS011;38661;53.152;5.846;2023-12-20T00:25:40;19.58;;;4.60;;
52786;SDS011;38661;53.152;5.846;2023-12-20T00:28:06;19.77;;;4.53;;
52786;SDS011;38661;53.152;5.846;2023-12-20T00:30:31;19.48;;;5.13;;
52786;SDS011;38661;53.152;5.846;2023-12-20T00:32:57;18.05;;;4.72;;
52786;SDS011;38661;53.152;5.846;2023-12-20T00:35:23;18.45;;;4.03;;
52786;SDS011;38661;53.152;5.846;2023-12-20T00:37:49;20.38;;;3.70;;
52786;SDS011;38661;53.152;5.846;2023-12-20T00:40:15;21.58;;;5.25;;
52786;SDS011;38661;53.152;5.846;2023-12-20T00:42:41;23.13;;;5.45;;
52786;SDS011;38661;53.152;5.846;2023-12-20T00:45:07;20.17;;;5.13;;
52786;SDS011;38661;53.152;5.846;2023-12-20T00:47:33;23.70;;;5.38;;
52786;SDS011;38661;53.152;5.846;2023-12-20T00:49:58;19.90;;;5.07;;
52786;SDS011;38661;53.152;5.846;2023-12-20T00:52:24;28.00;;;5.28;;
52786;SDS011;38661;53.152;5.846;2023-12-20T00:54:50;21.75;;;4.50;;
52786;SDS011;38661;53.152;5.846;2023-12-20T00:57:16;29.38;;;5.55;;
52786;SDS011;38661;53.152;5.846;2023-12-20T00:59:41;19.02;;;4.15;;
52786;SDS011;38661;53.152;5.846;2023-12-20T01:02:07;34.92;;;5.13;;
52786;SDS011;38661;53.152;5.846;2023-12-20T01:04:34;20.30;;;5.20;;
52786;SDS011;38661;53.152;5.846;2023-12-20T01:06:59;25.95;;;4.55;;
52786;SDS011;38661;53.152;5.846;2023-12-20T01:09:25;20.17;;;5.38;;
52786;SDS011;38661;53.152;5.846;2023-12-20T01:11:53;27.10;;;5.85;;
52786;SDS011;38661;53.152;5.846;2023-12-20T01:14:19;23.05;;;5.00;;
52786;SDS011;38661;53.152;5.846;2023-12-20T01:16:45;24.55;;;4.53;;
52786;SDS011;38661;53.152;5.846;2023-12-20T01:19:10;22.17;;;5.45;;
52786;SDS011;38661;53.152;5.846;2023-12-20T01:21:36;23.10;;;5.28;;
52786;SDS011;38661;53.152;5.846;2023-12-20T01:24:02;16.92;;;4.85;;
52786;SDS011;38661;53.152;5.846;2023-12-20T01:26:28;21.05;;;3.90;;
52786;SDS011;38661;53.152;5.846;2023-12-20T01:28:53;19.88;;;4.05;;
52786;SDS011;38661;53.152;5.846;2023-12-20T01:31:19;21.90;;;4.18;;
52786;SDS011;38661;53.152;5.846;2023-12-20T01:33:45;26.38;;;4.57;;
52786;SDS011;38661;53.152;5.846;2023-12-20T01:36:11;19.90;;;5.85;;
52786;SDS011;38661;53.152;5.846;2023-12-20T01:38:36;16.98;;;5.00;;
52786;SDS011;38661;53.152;5.846;2023-12-20T01:41:02;21.98;;;5.55;;
52786;SDS011;38661;53.152;5.846;2023-12-20T01:43:29;31.88;;;6.30;;
52786;SDS011;38661;53.152;5.846;2023-12-20T01:45:56;24.00;;;5.30;;
52786;SDS011;38661;53.152;5.846;2023-12-20T01:48:23;17.42;;;4.82;;
52786;SDS011;38661;53.152;5.846;2023-12-20T01:50:49;20.20;;;4.72;;
52786;SDS011;38661;53.152;5.846;2023-12-20T01:53:16;20.85;;;5.10;;
52786;SDS011;38661;53.152;5.846;2023-12-20T01:55:43;33.55;;;6.25;;
52786;SDS011;38661;53.152;5.846;2023-12-20T01:58:10;25.30;;;5.63;;
52786;SDS011;38661;53.152;5.846;2023-12-20T02:00:37;21.13;;;4.57;;
52786;SDS011;38661;53.152;5.846;2023-12-20T02:03:03;18.23;;;4.45;;
52786;SDS011;38661;53.152;5.846;2023-12-20T02:05:30;27.48;;;5.68;;
52786;SDS011;38661;53.152;5.846;2023-12-20T02:07:56;24.70;;;5.13;;
52786;SDS011;38661;53.152;5.846;2023-12-20T02:10:22;27.27;;;5.38;;
52786;SDS011;38661;53.152;5.846;2023-12-20T02:12:48;26.15;;;6.97;;
52786;SDS011;38661;53.152;5.846;2023-12-20T02:15:14;23.02;;;6.40;;
52786;SDS011;38661;53.152;5.846;2023-12-20T02:17:40;22.55;;;5.55;;
52786;SDS011;38661;53.152;5.846;2023-12-20T02:20:06;29.70;;;5.60;;
52786;SDS011;38661;53.152;5.846;2023-12-20T02:22:32;23.73;;;6.22;;
52786;SDS011;38661;53.152;5.846;2023-12-20T02:24:57;22.58;;;5.13;;
52786;SDS011;38661;53.152;5.846;2023-12-20T02:27:25;27.35;;;5.55;;
52786;SDS011;38661;53.152;5.846;2023-12-20T02:29:52;21.92;;;4.63;;
52786;SDS011;38661;53.152;5.846;2023-12-20T02:32:18;25.20;;;5.50;;
52786;SDS011;38661;53.152;5.846;2023-12-20T02:34:44;18.77;;;5.07;;
52786;SDS011;38661;53.152;5.846;2023-12-20T02:37:11;19.67;;;5.60;;
52786;SDS011;38661;53.152;5.846;2023-12-20T02:39:36;22.05;;;4.93;;
52786;SDS011;38661;53.152;5.846;2023-12-20T02:42:02;27.42;;;5.90;;
52786;SDS011;38661;53.152;5.846;2023-12-20T02:44:28;21.85;;;4.15;;
52786;SDS011;38661;53.152;5.846;2023-12-20T02:46:54;25.35;;;5.40;;
52786;SDS011;38661;53.152;5.846;2023-12-20T02:49:19;27.17;;;5.93;;
52786;SDS011;38661;53.152;5.846;2023-12-20T02:51:45;12.40;;;3.97;;
52786;SDS011;38661;53.152;5.846;2023-12-20T02:54:11;25.98;;;6.07;;
52786;SDS011;38661;53.152;5.846;2023-12-20T02:56:37;33.05;;;5.55;;
52786;SDS011;38661;53.152;5.846;2023-12-20T02:59:03;21.05;;;5.45;;
52786;SDS011;38661;53.152;5.846;2023-12-20T03:01:31;24.23;;;5.13;;
52786;SDS011;38661;53.152;5.846;2023-12-20T03:03:56;25.80;;;5.88;;
52786;SDS011;38661;53.152;5.846;2023-12-20T03:06:22;23.17;;;5.47;;
52786;SDS011;38661;53.152;5.846;2023-12-20T03:08:48;30.67;;;6.53;;
52786;SDS011;38661;53.152;5.846;2023-12-20T03:11:14;16.75;;;4.72;;
52786;SDS011;38661;53.152;5.846;2023-12-20T03:13:40;28.02;;;5.88;;
52786;SDS011;38661;53.152;5.846;2023-12-20T03:16:12;20.92;;;4.55;;
52786;SDS011;38661;53.152;5.846;2023-12-20T03:18:38;22.25;;;4.53;;
52786;SDS011;38661;53.152;5.846;2023-12-20T03:21:04;27.35;;;6.57;;
52786;SDS011;38661;53.152;5.846;2023-12-20T03:23:31;28.73;;;6.05;;
52786;SDS011;38661;53.152;5.846;2023-12-20T03:25:58;33.42;;;6.40;;
52786;SDS011;38661;53.152;5.846;2023-12-20T03:28:24;24.88;;;5.57;;
52786;SDS011;38661;53.152;5.846;2023-12-20T03:30:51;21.13;;;4.20;;
52786;SDS011;38661;53.152;5.846;2023-12-20T03:33:17;15.73;;;4.10;;
52786;SDS011;38661;53.152;5.846;2023-12-20T03:35:43;32.03;;;5.30;;
52786;SDS011;38661;53.152;5.846;2023-12-20T03:38:08;25.10;;;6.15;;
52786;SDS011;38661;53.152;5.846;2023-12-20T03:40:34;25.48;;;5.00;;
52786;SDS011;38661;53.152;5.846;2023-12-20T03:43:00;30.20;;;5.53;;
52786;SDS011;38661;53.152;5.846;2023-12-20T03:45:26;27.52;;;5.43;;
52786;SDS011;38661;53.152;5.846;2023-12-20T03:47:51;18.48;;;4.15;;
52786;SDS011;38661;53.152;5.846;2023-12-20T03:50:24;19.73;;;4.53;;
52786;SDS011;38661;53.152;5.846;2023-12-20T03:52:52;24.63;;;5.50;;
52786;SDS011;38661;53.152;5.846;2023-12-20T03:55:17;22.70;;;5.05;;
52786;SDS011;38661;53.152;5.846;2023-12-20T03:57:43;35.10;;;6.50;;
52786;SDS011;38661;53.152;5.846;2023-12-20T04:00:10;27.50;;;5.20;;
52786;SDS011;38661;53.152;5.846;2023-12-20T04:02:36;23.90;;;5.55;;
52786;SDS011;38661;53.152;5.846;2023-12-20T04:05:02;18.50;;;5.00;;
52786;SDS011;38661;53.152;5.846;2023-12-20T04:07:28;16.08;;;4.88;;
52786;SDS011;38661;53.152;5.846;2023-12-20T04:09:54;18.25;;;4.20;;
52786;SDS011;38661;53.152;5.846;2023-12-20T04:12:20;24.95;;;5.18;;
52786;SDS011;38661;53.152;5.846;2023-12-20T04:14:46;25.30;;;5.07;;
52786;SDS011;38661;53.152;5.846;2023-12-20T04:17:11;27.30;;;5.95;;
52786;SDS011;38661;53.152;5.846;2023-12-20T04:19:37;28.23;;;5.93;;
52786;SDS011;38661;53.152;5.846;2023-12-20T04:22:03;30.60;;;6.88;;
52786;SDS011;38661;53.152;5.846;2023-12-20T04:24:29;31.88;;;8.25;;
52786;SDS011;38661;53.152;5.846;2023-12-20T04:26:54;25.30;;;5.00;;
52786;SDS011;38661;53.152;5.846;2023-12-20T04:29:20;31.02;;;6.38;;
52786;SDS011;38661;53.152;5.846;2023-12-20T04:31:46;24.10;;;4.88;;
52786;SDS011;38661;53.152;5.846;2023-12-20T04:34:11;21.48;;;5.32;;
52786;SDS011;38661;53.152;5.846;2023-12-20T04:36:37;28.73;;;6.45;;
52786;SDS011;38661;53.152;5.846;2023-12-20T04:39:03;22.25;;;5.63;;
52786;SDS011;38661;53.152;5.846;2023-12-20T04:41:28;24.40;;;5.35;;
52786;SDS011;38661;53.152;5.846;2023-12-20T04:43:54;30.15;;;6.93;;
52786;SDS011;38661;53.152;5.846;2023-12-20T04:46:20;29.55;;;5.82;;
52786;SDS011;38661;53.152;5.846;2023-12-20T04:48:45;26.05;;;5.60;;
52786;SDS011;38661;53.152;5.846;2023-12-20T04:51:11;29.42;;;6.45;;
52786;SDS011;38661;53.152;5.846;2023-12-20T04:53:37;23.73;;;6.40;;
52786;SDS011;38661;53.152;5.846;2023-12-20T04:56:02;21.92;;;6.28;;
52786;SDS011;38661;53.152;5.846;2023-12-20T04:58:28;19.77;;;4.32;;
52786;SDS011;38661;53.152;5.846;2023-12-20T05:00:54;24.33;;;6.47;;
52786;SDS011;38661;53.152;5.846;2023-12-20T05:03:20;24.52;;;5.68;;
52786;SDS011;38661;53.152;5.846;2023-12-20T05:05:45;26.00;;;6.88;;
52786;SDS011;38661;53.152;5.846;2023-12-20T05:08:11;32.22;;;5.78;;
52786;SDS011;38661;53.152;5.846;2023-12-20T05:10:37;29.73;;;6.15;;
52786;SDS011;38661;53.152;5.846;2023-12-20T05:13:02;23.80;;;4.82;;
52786;SDS011;38661;53.152;5.846;2023-12-20T05:15:28;33.15;;;5.97;;
52786;SDS011;38661;53.152;5.846;2023-12-20T05:17:54;29.92;;;6.38;;
52786;SDS011;38661;53.152;5.846;2023-12-20T05:20:19;29.05;;;7.20;;
52786;SDS011;38661;53.152;5.846;2023-12-20T05:22:45;31.92;;;7.00;;
52786;SDS011;38661;53.152;5.846;2023-12-20T05:25:12;29.63;;;5.72;;
52786;SDS011;38661;53.152;5.846;2023-12-20T05:27:38;21.90;;;4.45;;
52786;SDS011;38661;53.152;5.846;2023-12-20T05:30:03;24.15;;;5.55;;
52786;SDS011;38661;53.152;5.846;2023-12-20T05:32:30;22.70;;;6.03;;
52786;SDS011;38661;53.152;5.846;2023-12-20T05:34:56;23.42;;;5.63;;
52786;SDS011;38661;53.152;5.846;2023-12-20T05:37:21;18.27;;;4.85;;
52786;SDS011;38661;53.152;5.846;2023-12-20T05:39:47;30.50;;;5.07;;
52786;SDS011;38661;53.152;5.846;2023-12-20T05:42:13;26.08;;;5.72;;
52786;SDS011;38661;53.152;5.846;2023-12-20T05:44:39;25.52;;;5.82;;
52786;SDS011;38661;53.152;5.846;2023-12-20T05:47:04;26.40;;;4.95;;
52786;SDS011;38661;53.152;5.846;2023-12-20T05:49:30;26.00;;;5.45;;
52786;SDS011;38661;53.152;5.846;2023-12-20T05:51:56;27.52;;;5.70;;
52786;SDS011;38661;53.152;5.846;2023-12-20T05:54:22;17.90;;;4.32;;
52786;SDS011;38661;53.152;5.846;2023-12-20T05:56:48;20.77;;;5.03;;
52786;SDS011;38661;53.152;5.846;2023-12-20T05:59:13;30.00;;;5.15;;
52786;SDS011;38661;53.152;5.846;2023-12-20T06:01:39;23.42;;;5.53;;
52786;SDS011;38661;53.152;5.846;2023-12-20T06:04:05;34.50;;;6.70;;
52786;SDS011;38661;53.152;5.846;2023-12-20T06:06:30;30.75;;;5.88;;
52786;SDS011;38661;53.152;5.846;2023-12-20T06:08:56;14.95;;;4.72;;
52786;SDS011;38661;53.152;5.846;2023-12-20T06:11:22;30.20;;;5.93;;
52786;SDS011;38661;53.152;5.846;2023-12-20T06:13:48;20.25;;;4.85;;
52786;SDS011;38661;53.152;5.846;2023-12-20T06:16:17;22.27;;;6.25;;
52786;SDS011;38661;53.152;5.846;2023-12-20T06:18:43;25.13;;;4.78;;
52786;SDS011;38661;53.152;5.846;2023-12-20T06:21:09;25.45;;;6.63;;
52786;SDS011;38661;53.152;5.846;2023-12-20T06:23:37;24.23;;;6.68;;
52786;SDS011;38661;53.152;5.846;2023-12-20T06:26:03;21.98;;;4.68;;
52786;SDS011;38661;53.152;5.846;2023-12-20T06:28:29;22.90;;;5.35;;
52786;SDS011;38661;53.152;5.846;2023-12-20T06:30:55;22.00;;;5.68;;
52786;SDS011;38661;53.152;5.846;2023-12-20T06:33:22;28.77;;;6.10;;
52786;SDS011;38661;53.152;5.846;2023-12-20T06:35:48;23.40;;;5.78;;
52786;SDS011;38661;53.152;5.846;2023-12-20T06:38:14;15.38;;;3.60;;
52786;SDS011;38661;53.152;5.846;2023-12-20T06:40:40;20.60;;;4.88;;
52786;SDS011;38661;53.152;5.846;2023-12-20T06:43:05;18.10;;;4.25;;
52786;SDS011;38661;53.152;5.846;2023-12-20T06:45:32;25.63;;;6.25;;
52786;SDS011;38661;53.152;5.846;2023-12-20T06:47:57;24.08;;;4.75;;
52786;SDS011;38661;53.152;5.846;2023-12-20T06:50:23;20.17;;;4.53;;
52786;SDS011;38661;53.152;5.846;2023-12-20T06:52:49;26.40;;;6.32;;
52786;SDS011;38661;53.152;5.846;2023-12-20T06:55:15;21.92;;;5.03;;
52786;SDS011;38661;53.152;5.846;2023-12-20T06:57:42;22.10;;;5.82;;
52786;SDS011;38661;53.152;5.846;2023-12-20T07:00:08;28.17;;;5.50;;
52786;SDS011;38661;53.152;5.846;2023-12-20T07:02:35;19.20;;;5.00;;
52786;SDS011;38661;53.152;5.846;2023-12-20T07:05:01;27.20;;;6.28;;
52786;SDS011;38661;53.152;5.846;2023-12-20T07:07:27;26.83;;;6.47;;
52786;SDS011;38661;53.152;5.846;2023-12-20T07:09:53;26.40;;;5.95;;
52786;SDS011;38661;53.152;5.846;2023-12-20T07:12:18;28.42;;;6.63;;
52786;SDS011;38661;53.152;5.846;2023-12-20T07:14:45;23.77;;;6.13;;
52786;SDS011;38661;53.152;5.846;2023-12-20T07:17:11;17.23;;;4.20;;
52786;SDS011;38661;53.152;5.846;2023-12-20T07:19:38;28.88;;;5.60;;
52786;SDS011;38661;53.152;5.846;2023-12-20T07:22:05;21.63;;;5.18;;
52786;SDS011;38661;53.152;5.846;2023-12-20T07:24:31;24.80;;;5.80;;
52786;SDS011;38661;53.152;5.846;2023-12-20T07:26:58;26.33;;;5.85;;
52786;SDS011;38661;53.152;5.846;2023-12-20T07:29:24;22.67;;;6.55;;
52786;SDS011;38661;53.152;5.846;2023-12-20T07:31:50;13.35;;;4.45;;
52786;SDS011;38661;53.152;5.846;2023-12-20T07:34:17;18.15;;;5.22;;
52786;SDS011;38661;53.152;5.846;2023-12-20T07:36:43;22.98;;;5.85;;
52786;SDS011;38661;53.152;5.846;2023-12-20T07:39:09;24.50;;;5.80;;
52786;SDS011;38661;53.152;5.846;2023-12-20T07:41:35;26.83;;;6.78;;
52786;SDS011;38661;53.152;5.846;2023-12-20T07:44:01;20.15;;;6.00;;
52786;SDS011;38661;53.152;5.846;2023-12-20T07:46:26;22.88;;;5.95;;
52786;SDS011;38661;53.152;5.846;2023-12-20T07:48:52;22.20;;;4.72;;
52786;SDS011;38661;53.152;5.846;2023-12-20T07:51:17;21.25;;;5.40;;
52786;SDS011;38661;53.152;5.846;2023-12-20T07:53:44;24.95;;;5.05;;
52786;SDS011;38661;53.152;5.846;2023-12-20T07:56:16;24.23;;;6.10;;
52786;SDS011;38661;53.152;5.846;2023-12-20T07:58:43;15.07;;;4.65;;
52786;SDS011;38661;53.152;5.846;2023-12-20T08:01:10;14.70;;;4.68;;
52786;SDS011;38661;53.152;5.846;2023-12-20T08:03:37;12.77;;;3.53;;
52786;SDS011;38661;53.152;5.846;2023-12-20T08:06:03;14.98;;;3.67;;
52786;SDS011;38661;53.152;5.846;2023-12-20T08:08:29;12.40;;;3.55;;
52786;SDS011;38661;53.152;5.846;2023-12-20T08:10:55;22.98;;;4.93;;
52786;SDS011;38661;53.152;5.846;2023-12-20T08:13:24;22.42;;;5.30;;
52786;SDS011;38661;53.152;5.846;2023-12-20T08:15:51;23.55;;;4.97;;
52786;SDS011;38661;53.152;5.846;2023-12-20T08:18:17;19.17;;;3.67;;
52786;SDS011;38661;53.152;5.846;2023-12-20T08:20:43;26.58;;;6.63;;
52786;SDS011;38661;53.152;5.846;2023-12-20T08:23:08;18.90;;;5.35;;
52786;SDS011;38661;53.152;5.846;2023-12-20T08:25:34;24.85;;;5.40;;
52786;SDS011;38661;53.152;5.846;2023-12-20T08:28:00;23.30;;;4.72;;
52786;SDS011;38661;53.152;5.846;2023-12-20T08:30:27;21.80;;;6.20;;
52786;SDS011;38661;53.152;5.846;2023-12-20T08:32:54;15.40;;;4.25;;
52786;SDS011;38661;53.152;5.846;2023-12-20T08:35:20;21.02;;;5.15;;
52786;SDS011;38661;53.152;5.846;2023-12-20T08:37:46;19.67;;;4.30;;
52786;SDS011;38661;53.152;5.846;2023-12-20T08:40:12;14.88;;;4.18;;
52786;SDS011;38661;53.152;5.846;2023-12-20T08:42:37;27.95;;;6.85;;
52786;SDS011;38661;53.152;5.846;2023-12-20T08:45:03;12.52;;;4.38;;
52786;SDS011;38661;53.152;5.846;2023-12-20T08:47:29;32.42;;;6.78;;
52786;SDS011;38661;53.152;5.846;2023-12-20T08:49:55;18.50;;;5.13;;
52786;SDS011;38661;53.152;5.846;2023-12-20T08:52:25;18.48;;;4.75;;
52786;SDS011;38661;53.152;5.846;2023-12-20T08:54:52;26.90;;;5.20;;
52786;SDS011;38661;53.152;5.846;2023-12-20T08:57:22;24.63;;;5.50;;
52786;SDS011;38661;53.152;5.846;2023-12-20T08:59:50;15.73;;;3.63;;
52786;SDS011;38661;53.152;5.846;2023-12-20T09:02:16;7.00;;;2.10;;
52786;SDS011;38661;53.152;5.846;2023-12-20T09:04:42;12.30;;;2.08;;
52786;SDS011;38661;53.152;5.846;2023-12-20T09:07:24;10.63;;;2.03;;
52786;SDS011;38661;53.152;5.846;2023-12-20T09:09:51;9.68;;;1.98;;
52786;SDS011;38661;53.152;5.846;2023-12-20T09:12:18;6.43;;;1.73;;
52786;SDS011;38661;53.152;5.846;2023-12-20T09:14:45;9.90;;;1.92;;
52786;SDS011;38661;53.152;5.846;2023-12-20T09:17:14;8.10;;;1.63;;
52786;SDS011;38661;53.152;5.846;2023-12-20T09:19:41;8.38;;;1.73;;
52786;SDS011;38661;53.152;5.846;2023-12-20T09:22:08;12.52;;;1.73;;
52786;SDS011;38661;53.152;5.846;2023-12-20T09:24:34;9.40;;;1.73;;
52786;SDS011;38661;53.152;5.846;2023-12-20T09:27:00;10.45;;;1.67;;
52786;SDS011;38661;53.152;5.846;2023-12-20T09:29:26;11.32;;;2.17;;
52786;SDS011;38661;53.152;5.846;2023-12-20T09:31:52;7.95;;;2.45;;
52786;SDS011;38661;53.152;5.846;2023-12-20T09:34:17;9.98;;;2.00;;
52786;SDS011;38661;53.152;5.846;2023-12-20T09:36:43;13.55;;;3.45;;
52786;SDS011;38661;53.152;5.846;2023-12-20T09:39:13;12.75;;;3.95;;
52786;SDS011;38661;53.152;5.846;2023-12-20T09:41:41;12.05;;;2.25;;
52786;SDS011;38661;53.152;5.846;2023-12-20T09:44:12;15.07;;;2.78;;
52786;SDS011;38661;53.152;5.846;2023-12-20T09:46:43;14.75;;;2.28;;
52786;SDS011;38661;53.152;5.846;2023-12-20T09:49:11;13.57;;;2.25;;
52786;SDS011;38661;53.152;5.846;2023-12-20T09:51:37;18.98;;;3.17;;
52786;SDS011;38661;53.152;5.846;2023-12-20T09:54:04;11.02;;;2.22;;
52786;SDS011;38661;53.152;5.846;2023-12-20T09:56:30;10.68;;;2.30;;
52786;SDS011;38661;53.152;5.846;2023-12-20T09:58:56;11.43;;;1.60;;
52786;SDS011;38661;53.152;5.846;2023-12-20T10:01:22;11.35;;;2.05;;
52786;SDS011;38661;53.152;5.846;2023-12-20T10:03:50;11.43;;;2.20;;
52786;SDS011;38661;53.152;5.846;2023-12-20T10:06:18;9.57;;;1.95;;
52786;SDS011;38661;53.152;5.846;2023-12-20T10:08:44;11.50;;;2.00;;
52786;SDS011;38661;53.152;5.846;2023-12-20T10:11:10;7.53;;;1.63;;
52786;SDS011;38661;53.152;5.846;2023-12-20T10:13:39;10.18;;;3.05;;
52786;SDS011;38661;53.152;5.846;2023-12-20T10:16:06;15.13;;;2.45;;
52786;SDS011;38661;53.152;5.846;2023-12-20T10:18:32;8.10;;;1.83;;
52786;SDS011;38661;53.152;5.846;2023-12-20T10:20:58;13.25;;;2.80;;
52786;SDS011;38661;53.152;5.846;2023-12-20T10:23:25;10.80;;;2.50;;
52786;SDS011;38661;53.152;5.846;2023-12-20T10:26:00;10.93;;;2.20;;
52786;SDS011;38661;53.152;5.846;2023-12-20T10:28:26;11.40;;;2.15;;
52786;SDS011;38661;53.152;5.846;2023-12-20T10:30:57;12.85;;;2.03;;
52786;SDS011;38661;53.152;5.846;2023-12-20T10:33:27;9.50;;;3.08;;
52786;SDS011;38661;53.152;5.846;2023-12-20T10:35:57;12.40;;;2.88;;
52786;SDS011;38661;53.152;5.846;2023-12-20T10:38:23;15.35;;;2.63;;
52786;SDS011;38661;53.152;5.846;2023-12-20T10:40:49;13.80;;;3.22;;
52786;SDS011;38661;53.152;5.846;2023-12-20T10:43:19;10.95;;;2.65;;
52786;SDS011;38661;53.152;5.846;2023-12-20T10:45:45;10.05;;;2.10;;
52786;SDS011;38661;53.152;5.846;2023-12-20T10:48:11;12.95;;;2.72;;
52786;SDS011;38661;53.152;5.846;2023-12-20T10:50:37;16.90;;;2.60;;
52786;SDS011;38661;53.152;5.846;2023-12-20T10:53:03;13.50;;;2.42;;
52786;SDS011;38661;53.152;5.846;2023-12-20T10:55:29;11.43;;;2.10;;
52786;SDS011;38661;53.152;5.846;2023-12-20T10:58:00;12.45;;;1.92;;
52786;SDS011;38661;53.152;5.846;2023-12-20T11:00:27;15.23;;;2.92;;
52786;SDS011;38661;53.152;5.846;2023-12-20T11:03:00;9.73;;;2.25;;
52786;SDS011;38661;53.152;5.846;2023-12-20T11:05:33;14.15;;;2.70;;
52786;SDS011;38661;53.152;5.846;2023-12-20T11:08:24;8.57;;;2.15;;
52786;SDS011;38661;53.152;5.846;2023-12-20T11:11:06;15.90;;;3.47;;
52786;SDS011;38661;53.152;5.846;2023-12-20T11:13:41;14.27;;;3.08;;
52786;SDS011;38661;53.152;5.846;2023-12-20T11:16:19;24.13;;;4.85;;
52786;SDS011;38661;53.152;5.846;2023-12-20T11:18:45;12.32;;;2.83;;
52786;SDS011;38661;53.152;5.846;2023-12-20T11:21:11;13.25;;;2.83;;
52786;SDS011;38661;53.152;5.846;2023-12-20T11:23:39;15.95;;;3.03;;
52786;SDS011;38661;53.152;5.846;2023-12-20T11:26:07;17.38;;;3.85;;
52786;SDS011;38661;53.152;5.846;2023-12-20T11:28:33;11.52;;;2.50;;
52786;SDS011;38661;53.152;5.846;2023-12-20T11:31:00;11.80;;;2.70;;
52786;SDS011;38661;53.152;5.846;2023-12-20T11:33:29;12.73;;;3.00;;
52786;SDS011;38661;53.152;5.846;2023-12-20T11:36:01;14.00;;;4.22;;
52786;SDS011;38661;53.152;5.846;2023-12-20T11:38:35;11.85;;;2.90;;
52786;SDS011;38661;53.152;5.846;2023-12-20T11:41:02;13.25;;;3.30;;
52786;SDS011;38661;53.152;5.846;2023-12-20T11:46:06;17.42;;;3.75;;
52786;SDS011;38661;53.152;5.846;2023-12-20T11:48:39;11.45;;;3.08;;
52786;SDS011;38661;53.152;5.846;2023-12-20T11:51:14;20.13;;;3.95;;
52786;SDS011;38661;53.152;5.846;2023-12-20T11:53:40;15.90;;;3.42;;
52786;SDS011;38661;53.152;5.846;2023-12-20T11:56:07;14.38;;;3.55;;
52786;SDS011;38661;53.152;5.846;2023-12-20T11:58:34;13.82;;;3.85;;
52786;SDS011;38661;53.152;5.846;2023-12-20T12:01:00;30.27;;;4.35;;
52786;SDS011;38661;53.152;5.846;2023-12-20T12:03:29;13.32;;;3.10;;
52786;SDS011;38661;53.152;5.846;2023-12-20T12:05:55;14.13;;;3.60;;
52786;SDS011;38661;53.152;5.846;2023-12-20T12:08:21;18.77;;;3.05;;
52786;SDS011;38661;53.152;5.846;2023-12-20T12:10:46;17.80;;;4.13;;
52786;SDS011;38661;53.152;5.846;2023-12-20T12:13:12;12.52;;;3.15;;
52786;SDS011;38661;53.152;5.846;2023-12-20T12:15:39;20.73;;;3.22;;
52786;SDS011;38661;53.152;5.846;2023-12-20T12:18:07;12.75;;;2.55;;
52786;SDS011;38661;53.152;5.846;2023-12-20T12:20:33;15.45;;;3.90;;
52786;SDS011;38661;53.152;5.846;2023-12-20T12:25:25;14.50;;;2.33;;
52786;SDS011;38661;53.152;5.846;2023-12-20T12:27:52;10.18;;;1.90;;
52786;SDS011;38661;53.152;5.846;2023-12-20T12:30:18;8.98;;;2.10;;
52786;SDS011;38661;53.152;5.846;2023-12-20T12:32:44;11.90;;;2.15;;
52786;SDS011;38661;53.152;5.846;2023-12-20T12:35:10;14.50;;;2.90;;
52786;SDS011;38661;53.152;5.846;2023-12-20T12:37:39;9.93;;;2.50;;
52786;SDS011;38661;53.152;5.846;2023-12-20T12:40:09;8.57;;;2.13;;
52786;SDS011;38661;53.152;5.846;2023-12-20T12:42:36;8.95;;;1.77;;
52786;SDS011;38661;53.152;5.846;2023-12-20T12:45:05;12.07;;;2.47;;
52786;SDS011;38661;53.152;5.846;2023-12-20T12:47:32;8.95;;;2.30;;
52786;SDS011;38661;53.152;5.846;2023-12-20T12:49:58;9.70;;;1.80;;
52786;SDS011;38661;53.152;5.846;2023-12-20T12:52:23;9.32;;;2.90;;
52786;SDS011;38661;53.152;5.846;2023-12-20T12:54:49;14.93;;;3.30;;
52786;SDS011;38661;53.152;5.846;2023-12-20T12:57:15;11.13;;;1.98;;
52786;SDS011;38661;53.152;5.846;2023-12-20T12:59:42;9.32;;;2.65;;
52786;SDS011;38661;53.152;5.846;2023-12-20T13:02:10;13.10;;;2.63;;
52786;SDS011;38661;53.152;5.846;2023-12-20T13:04:36;14.57;;;2.05;;
52786;SDS011;38661;53.152;5.846;2023-12-20T13:07:02;12.30;;;2.35;;
52786;SDS011;38661;53.152;5.846;2023-12-20T13:09:28;15.07;;;2.55;;
52786;SDS011;38661;53.152;5.846;2023-12-20T13:11:53;10.05;;;3.50;;
52786;SDS011;38661;53.152;5.846;2023-12-20T13:14:19;13.55;;;2.70;;
52786;SDS011;38661;53.152;5.846;2023-12-20T13:16:45;12.82;;;2.72;;
52786;SDS011;38661;53.152;5.846;2023-12-20T13:19:11;9.35;;;1.75;;
52786;SDS011;38661;53.152;5.846;2023-12-20T13:21:39;10.25;;;1.70;;
52786;SDS011;38661;53.152;5.846;2023-12-20T13:24:05;9.10;;;2.58;;
52786;SDS011;38661;53.152;5.846;2023-12-20T13:26:31;11.43;;;2.55;;
52786;SDS011;38661;53.152;5.846;2023-12-20T13:28:58;5.43;;;1.70;;
52786;SDS011;38661;53.152;5.846;2023-12-20T13:31:24;6.75;;;1.63;;
52786;SDS011;38661;53.152;5.846;2023-12-20T13:33:49;8.68;;;2.47;;
52786;SDS011;38661;53.152;5.846;2023-12-20T13:36:17;9.25;;;2.53;;
52786;SDS011;38661;53.152;5.846;2023-12-20T13:38:43;8.80;;;2.50;;
52786;SDS011;38661;53.152;5.846;2023-12-20T13:41:09;8.25;;;2.28;;
52786;SDS011;38661;53.152;5.846;2023-12-20T13:43:35;8.70;;;2.35;;
52786;SDS011;38661;53.152;5.846;2023-12-20T13:46:01;11.55;;;3.00;;
52786;SDS011;38661;53.152;5.846;2023-12-20T13:48:27;11.48;;;3.15;;
52786;SDS011;38661;53.152;5.846;2023-12-20T13:50:52;13.60;;;2.63;;
52786;SDS011;38661;53.152;5.846;2023-12-20T13:53:19;7.75;;;2.80;;
52786;SDS011;38661;53.152;5.846;2023-12-20T13:55:45;9.45;;;2.60;;
52786;SDS011;38661;53.152;5.846;2023-12-20T13:58:11;11.13;;;2.80;;
52786;SDS011;38661;53.152;5.846;2023-12-20T14:00:37;14.77;;;3.10;;
52786;SDS011;38661;53.152;5.846;2023-12-20T14:03:03;6.47;;;2.20;;
52786;SDS011;38661;53.152;5.846;2023-12-20T14:05:29;8.18;;;2.00;;
52786;SDS011;38661;53.152;5.846;2023-12-20T14:07:56;14.75;;;2.42;;
52786;SDS011;38661;53.152;5.846;2023-12-20T14:10:23;13.30;;;3.15;;
52786;SDS011;38661;53.152;5.846;2023-12-20T14:12:51;12.82;;;2.92;;
52786;SDS011;38661;53.152;5.846;2023-12-20T14:15:17;8.20;;;2.22;;
52786;SDS011;38661;53.152;5.846;2023-12-20T14:17:43;11.95;;;2.75;;
52786;SDS011;38661;53.152;5.846;2023-12-20T14:20:09;10.10;;;2.53;;
52786;SDS011;38661;53.152;5.846;2023-12-20T14:22:37;8.93;;;1.88;;
52786;SDS011;38661;53.152;5.846;2023-12-20T14:25:03;9.27;;;2.70;;
52786;SDS011;38661;53.152;5.846;2023-12-20T14:27:31;10.63;;;2.20;;
52786;SDS011;38661;53.152;5.846;2023-12-20T14:29:57;18.33;;;3.03;;
52786;SDS011;38661;53.152;5.846;2023-12-20T14:32:23;10.95;;;2.22;;
52786;SDS011;38661;53.152;5.846;2023-12-20T14:34:51;17.05;;;3.20;;
52786;SDS011;38661;53.152;5.846;2023-12-20T14:37:17;12.18;;;3.45;;